Aérodrome :







RETROUVEZ-NOUS SUR...

 
LOGIN :

S'inscrire | Disclaimer

   EN    FR    IT 

 









Légende :    VFR   VFR Marginal   IFR   IFR Intensif   IFR Très Intensif
Visi : 
Plafond : 
>= 8 km
>= 3000ft
5 à 8 km
1000 à 3000 ft
1500m à 5 km
500 à 1000 ft
800 à 1500m
200 à 500 ft
< 800m
< 200 ft
Symboles :   Orages  Brouillard  Fortes neiges  Fortes précipitations  Vent > 20 kt






- Altitude de l'aérodrome : 408 ft


KMLT - Millinocket Municipal

DERNIER METAR :
  • 281253Z AUTO 35006KT 10SM OVC044 M04/M09 A2970 RMK AO2 SLP068 T10391089

METARs EXPIRÉS :
  • 281236Z AUTO 01007KT 10SM SCT025 OVC044 M04/M09 A2970 RMK AO2 T10391089
  • 281153Z AUTO 36003KT 10SM OVC023 M04/M08 A2968 RMK AO2 SLP060 T10391083 11011 21039 51018
  • 281109Z AUTO VRB03KT 10SM BKN024 BKN031 OVC044 M04/M08 A2967 RMK AO2 T10391083
  • 281053Z AUTO VRB04KT 10SM FEW026 SCT032 OVC046 M04/M08 A2966 RMK AO2 SLP054 T10391083
  • 281040Z AUTO 04006KT 10SM SCT026 BKN031 OVC046 M04/M09 A2966 RMK AO2 T10391089
  • 281013Z AUTO 02006KT 10SM BKN024 BKN029 OVC047 M04/M09 A2966 RMK AO2 T10391089
  • 280953Z AUTO 01007KT 10SM FEW022 OVC049 M04/M09 A2965 RMK AO2 SLP050 T10391089

TAF N/A



MET'MAP, la Météo Aéronautique d'un coup d'oeil ! - Copyright ORBIFLY Décembre 2007 - Disclaimer

ORBIFLY MET'MAP TEAM :

Programmation & Développement : Alexandra Zaïnal
Sur une idée originale de : Baudouin d'Aumeries
Assistance à la programmation : Marc-Olivier Méhu
Soutien technique & logistique : Manuel Goepfert

Contact : metmap@orbifly.com




SOURCES & CREDITS :

   NOAA